Vero Beach, FL (32966)

7:39 PM EDT on September 04, 2015 (GMT -0400)
Oak Chase | | Change Station
CLOSE
Current Station
Personal Weather Station
Location: Vero Beach, FL
Elevation: 24 ft
Nearby Weather Stations

Elev 24 ft 27.66 °N, 80.46 °W | Updated 2 seconds ago

Mostly Cloudy
Mostly Cloudy
77.6 °F
Feels Like 80 °F
N
0.0
Wind Variable Wind from WNW
Gusts 0.0 mph

Today
High -- | Low -- °F
--% Chance of Precip.
Yesterday
High -- | Low -- °F
Precip. -- in
7:01 AM 7:39 PM
Waning Gibbous, 55% visible
Pressure 29.95 in
Visibility 8.0 miles
Clouds Mostly Cloudy 11000 ft
Heat Index 80 °F
Dew Point 73 °F
Humidity 86%
Rainfall 0.23 in
Snow Depth Not available.
UV 0 out of 12
Pollen 3.60 out of 12
Air Quality Not available.
Flu Activity Not available.
METAR KVRB 042253Z 26005KT 8SM BKN110 27/24 A2995 RMK AO2 SLP141 T02670244
Pressure 29.95 in
Visibility 8.0 miles
Clouds Mostly Cloudy 11000 ft
Heat Index 80 °F
Dew Point 73 °F
Humidity 86%
Rainfall 0.23 in
Snow Depth Not available.
UV 0 out of 12
Pollen 3.60 out of 12
Air Quality Not available.
Flu Activity Not available.
METAR KVRB 042253Z 26005KT 8SM BKN110 27/24 A2995 RMK AO2 SLP141 T02670244
Nowcast | as of 5:22 PM EDT on September 4, 2015

Early this evening...most of east central Florida had been stabilized by rain or outflow boundaries. A few downpours will occur through evening along with larger areas of lighter rain. Infrequent... isolated lightning strikes have been occurring with this lighter rain and will likely continue until all of the rainfall dissipates by mid to late evening. Additional details...including graphics are available online at: http://www.Srh.NOAA.Gov/mlb/blog.Php

×

10-Day Weather Forecast

×

Almanac

Astronomy

Sep. 04, 2015 Rise Set
Actual Time
Civil Twilight
Nautical Twilight
Astronomical Twilight
Moon
Length of Visible Light
Length of Day
Tomorrow will be .
, % of the Moon is Illuminated

Today's Extremes

State Highs State Lows

Community

WunderPhotos

Upload Photos

1,852,338 photos uploaded!

WunderBlogs® & News

Nearby

Air Quality

  Air Quality AQ Index Pollutant
Not available.

Snow Depth

Station Depth Elevation

Earthquake Activity

City Distance Mag. Time & Date
Minimum magnitude displayed is 2.5.

Coastal Water Temperatures

Place Temperature

Stations

Nearby Weather Stations

Station Location Temp. Windchill Dew Point Humidity Wind Precip. Elev Updated Type